sensor_id;sensor_type;location;lat;lon;timestamp;P1;durP1;ratioP1;P2;durP2;ratioP2
55268;SDS011;41131;42.990;21.954;2023-12-07T00:00:00;30.92;;;22.25;;
55268;SDS011;41131;42.990;21.954;2023-12-07T00:02:26;27.65;;;18.67;;
55268;SDS011;41131;42.990;21.954;2023-12-07T00:04:52;31.40;;;20.58;;
55268;SDS011;41131;42.990;21.954;2023-12-07T00:07:18;45.15;;;29.75;;
55268;SDS011;41131;42.990;21.954;2023-12-07T00:09:44;37.67;;;25.98;;
55268;SDS011;41131;42.990;21.954;2023-12-07T00:12:10;41.22;;;28.05;;
55268;SDS011;41131;42.990;21.954;2023-12-07T00:14:36;41.35;;;28.27;;
55268;SDS011;41131;42.990;21.954;2023-12-07T00:17:02;39.22;;;25.83;;
55268;SDS011;41131;42.990;21.954;2023-12-07T00:19:29;40.90;;;27.02;;
55268;SDS011;41131;42.990;21.954;2023-12-07T00:21:55;45.72;;;29.15;;
55268;SDS011;41131;42.990;21.954;2023-12-07T00:24:21;47.15;;;29.02;;
55268;SDS011;41131;42.990;21.954;2023-12-07T00:26:47;44.10;;;29.25;;
55268;SDS011;41131;42.990;21.954;2023-12-07T00:29:14;34.28;;;24.35;;
55268;SDS011;41131;42.990;21.954;2023-12-07T00:31:40;26.33;;;18.73;;
55268;SDS011;41131;42.990;21.954;2023-12-07T00:34:06;32.35;;;22.48;;
55268;SDS011;41131;42.990;21.954;2023-12-07T00:36:34;26.20;;;19.30;;
55268;SDS011;41131;42.990;21.954;2023-12-07T00:39:01;34.47;;;26.10;;
55268;SDS011;41131;42.990;21.954;2023-12-07T00:41:29;40.65;;;27.15;;
55268;SDS011;41131;42.990;21.954;2023-12-07T00:43:55;40.00;;;27.02;;
55268;SDS011;41131;42.990;21.954;2023-12-07T00:46:21;38.78;;;26.38;;
55268;SDS011;41131;42.990;21.954;2023-12-07T00:48:47;35.53;;;25.27;;
55268;SDS011;41131;42.990;21.954;2023-12-07T00:51:13;33.92;;;25.55;;
55268;SDS011;41131;42.990;21.954;2023-12-07T00:53:40;29.45;;;22.10;;
55268;SDS011;41131;42.990;21.954;2023-12-07T00:56:07;33.85;;;23.70;;
55268;SDS011;41131;42.990;21.954;2023-12-07T00:58:33;44.30;;;27.90;;
55268;SDS011;41131;42.990;21.954;2023-12-07T01:00:59;33.85;;;22.20;;
55268;SDS011;41131;42.990;21.954;2023-12-07T01:03:25;36.70;;;25.15;;
55268;SDS011;41131;42.990;21.954;2023-12-07T01:05:51;37.00;;;26.33;;
55268;SDS011;41131;42.990;21.954;2023-12-07T01:08:18;39.42;;;24.85;;
55268;SDS011;41131;42.990;21.954;2023-12-07T01:10:44;32.45;;;23.45;;
55268;SDS011;41131;42.990;21.954;2023-12-07T01:13:10;30.88;;;21.88;;
55268;SDS011;41131;42.990;21.954;2023-12-07T01:15:36;31.75;;;23.17;;
55268;SDS011;41131;42.990;21.954;2023-12-07T01:18:02;27.10;;;21.42;;
55268;SDS011;41131;42.990;21.954;2023-12-07T01:20:28;31.73;;;21.45;;
55268;SDS011;41131;42.990;21.954;2023-12-07T01:22:54;41.13;;;27.45;;
55268;SDS011;41131;42.990;21.954;2023-12-07T01:25:20;35.58;;;25.95;;
55268;SDS011;41131;42.990;21.954;2023-12-07T01:27:47;35.10;;;24.55;;
55268;SDS011;41131;42.990;21.954;2023-12-07T01:30:13;36.28;;;24.60;;
55268;SDS011;41131;42.990;21.954;2023-12-07T01:32:39;42.30;;;29.88;;
55268;SDS011;41131;42.990;21.954;2023-12-07T01:35:06;32.22;;;23.00;;
55268;SDS011;41131;42.990;21.954;2023-12-07T01:37:32;30.65;;;22.63;;
55268;SDS011;41131;42.990;21.954;2023-12-07T01:39:58;32.58;;;22.02;;
55268;SDS011;41131;42.990;21.954;2023-12-07T01:42:24;36.88;;;26.08;;
55268;SDS011;41131;42.990;21.954;2023-12-07T01:44:50;30.77;;;22.95;;
55268;SDS011;41131;42.990;21.954;2023-12-07T01:47:16;30.48;;;22.52;;
55268;SDS011;41131;42.990;21.954;2023-12-07T01:49:42;34.85;;;22.27;;
55268;SDS011;41131;42.990;21.954;2023-12-07T01:52:09;34.47;;;22.90;;
55268;SDS011;41131;42.990;21.954;2023-12-07T01:54:36;30.77;;;21.80;;
55268;SDS011;41131;42.990;21.954;2023-12-07T01:57:03;37.60;;;25.10;;
55268;SDS011;41131;42.990;21.954;2023-12-07T01:59:29;32.85;;;24.42;;
55268;SDS011;41131;42.990;21.954;2023-12-07T02:01:55;26.42;;;18.35;;
55268;SDS011;41131;42.990;21.954;2023-12-07T02:04:21;22.50;;;16.13;;
55268;SDS011;41131;42.990;21.954;2023-12-07T02:06:47;19.88;;;13.15;;
55268;SDS011;41131;42.990;21.954;2023-12-07T02:09:13;20.67;;;13.45;;
55268;SDS011;41131;42.990;21.954;2023-12-07T02:11:40;16.98;;;12.57;;
55268;SDS011;41131;42.990;21.954;2023-12-07T02:14:06;14.68;;;11.95;;
55268;SDS011;41131;42.990;21.954;2023-12-07T02:16:39;18.25;;;14.15;;
55268;SDS011;41131;42.990;21.954;2023-12-07T02:19:19;22.45;;;13.75;;
55268;SDS011;41131;42.990;21.954;2023-12-07T02:21:59;22.58;;;13.95;;
55268;SDS011;41131;42.990;21.954;2023-12-07T02:24:27;17.50;;;12.50;;
55268;SDS011;41131;42.990;21.954;2023-12-07T02:26:55;16.00;;;10.93;;
55268;SDS011;41131;42.990;21.954;2023-12-07T02:29:21;14.38;;;9.63;;
55268;SDS011;41131;42.990;21.954;2023-12-07T02:31:47;12.38;;;9.63;;
55268;SDS011;41131;42.990;21.954;2023-12-07T02:34:13;15.60;;;12.02;;
55268;SDS011;41131;42.990;21.954;2023-12-07T02:36:39;16.02;;;12.60;;
55268;SDS011;41131;42.990;21.954;2023-12-07T02:39:06;15.68;;;13.13;;
55268;SDS011;41131;42.990;21.954;2023-12-07T02:41:32;14.48;;;11.35;;
55268;SDS011;41131;42.990;21.954;2023-12-07T02:43:59;16.40;;;12.30;;
55268;SDS011;41131;42.990;21.954;2023-12-07T02:46:25;15.18;;;11.63;;
55268;SDS011;41131;42.990;21.954;2023-12-07T02:48:52;13.85;;;10.02;;
55268;SDS011;41131;42.990;21.954;2023-12-07T02:51:18;13.05;;;9.85;;
55268;SDS011;41131;42.990;21.954;2023-12-07T02:53:44;14.35;;;10.98;;
55268;SDS011;41131;42.990;21.954;2023-12-07T02:56:10;15.90;;;11.82;;
55268;SDS011;41131;42.990;21.954;2023-12-07T02:58:36;19.58;;;14.10;;
55268;SDS011;41131;42.990;21.954;2023-12-07T03:01:02;22.17;;;16.05;;
55268;SDS011;41131;42.990;21.954;2023-12-07T03:03:29;21.08;;;15.60;;
55268;SDS011;41131;42.990;21.954;2023-12-07T03:05:55;15.48;;;11.82;;
55268;SDS011;41131;42.990;21.954;2023-12-07T03:08:21;17.63;;;13.07;;
55268;SDS011;41131;42.990;21.954;2023-12-07T03:10:47;37.60;;;23.77;;
55268;SDS011;41131;42.990;21.954;2023-12-07T03:13:14;29.45;;;20.20;;
55268;SDS011;41131;42.990;21.954;2023-12-07T03:15:40;22.10;;;16.75;;
55268;SDS011;41131;42.990;21.954;2023-12-07T03:18:06;19.73;;;15.00;;
55268;SDS011;41131;42.990;21.954;2023-12-07T03:20:34;20.45;;;14.85;;
55268;SDS011;41131;42.990;21.954;2023-12-07T03:23:00;18.63;;;13.85;;
55268;SDS011;41131;42.990;21.954;2023-12-07T03:25:26;16.92;;;11.65;;
55268;SDS011;41131;42.990;21.954;2023-12-07T03:27:52;20.60;;;12.52;;
55268;SDS011;41131;42.990;21.954;2023-12-07T03:30:18;14.75;;;12.10;;
55268;SDS011;41131;42.990;21.954;2023-12-07T03:32:44;18.88;;;13.50;;
55268;SDS011;41131;42.990;21.954;2023-12-07T03:35:10;16.88;;;11.40;;
55268;SDS011;41131;42.990;21.954;2023-12-07T03:37:37;22.27;;;15.60;;
55268;SDS011;41131;42.990;21.954;2023-12-07T03:40:03;18.70;;;13.98;;
55268;SDS011;41131;42.990;21.954;2023-12-07T03:42:30;19.15;;;12.13;;
55268;SDS011;41131;42.990;21.954;2023-12-07T03:44:56;20.20;;;15.70;;
55268;SDS011;41131;42.990;21.954;2023-12-07T03:47:23;17.58;;;12.00;;
55268;SDS011;41131;42.990;21.954;2023-12-07T03:49:49;17.30;;;13.23;;
55268;SDS011;41131;42.990;21.954;2023-12-07T03:52:15;17.73;;;13.00;;
55268;SDS011;41131;42.990;21.954;2023-12-07T03:54:41;20.50;;;14.55;;
55268;SDS011;41131;42.990;21.954;2023-12-07T03:57:07;16.85;;;12.52;;
55268;SDS011;41131;42.990;21.954;2023-12-07T03:59:35;19.63;;;13.93;;
55268;SDS011;41131;42.990;21.954;2023-12-07T04:02:01;15.57;;;11.15;;
55268;SDS011;41131;42.990;21.954;2023-12-07T04:04:28;15.23;;;11.48;;
55268;SDS011;41131;42.990;21.954;2023-12-07T04:06:54;18.45;;;14.38;;
55268;SDS011;41131;42.990;21.954;2023-12-07T04:09:20;18.77;;;12.77;;
55268;SDS011;41131;42.990;21.954;2023-12-07T04:11:46;19.08;;;12.57;;
55268;SDS011;41131;42.990;21.954;2023-12-07T04:14:12;19.23;;;13.18;;
55268;SDS011;41131;42.990;21.954;2023-12-07T04:16:38;19.52;;;14.50;;
55268;SDS011;41131;42.990;21.954;2023-12-07T04:19:04;18.75;;;14.25;;
55268;SDS011;41131;42.990;21.954;2023-12-07T04:21:30;16.75;;;12.63;;
55268;SDS011;41131;42.990;21.954;2023-12-07T04:23:56;24.08;;;16.88;;
55268;SDS011;41131;42.990;21.954;2023-12-07T04:26:23;31.48;;;20.40;;
55268;SDS011;41131;42.990;21.954;2023-12-07T04:28:49;26.38;;;18.23;;
55268;SDS011;41131;42.990;21.954;2023-12-07T04:31:15;34.50;;;23.17;;
55268;SDS011;41131;42.990;21.954;2023-12-07T04:33:41;28.67;;;18.77;;
55268;SDS011;41131;42.990;21.954;2023-12-07T04:36:07;21.02;;;15.65;;
55268;SDS011;41131;42.990;21.954;2023-12-07T04:38:33;20.42;;;15.30;;
55268;SDS011;41131;42.990;21.954;2023-12-07T04:40:59;15.77;;;12.23;;
55268;SDS011;41131;42.990;21.954;2023-12-07T04:43:25;19.95;;;13.57;;
55268;SDS011;41131;42.990;21.954;2023-12-07T04:45:51;18.67;;;12.75;;
55268;SDS011;41131;42.990;21.954;2023-12-07T04:48:17;19.95;;;13.63;;
55268;SDS011;41131;42.990;21.954;2023-12-07T04:50:43;19.63;;;14.70;;
55268;SDS011;41131;42.990;21.954;2023-12-07T04:53:10;22.15;;;15.77;;
55268;SDS011;41131;42.990;21.954;2023-12-07T04:55:36;20.83;;;15.13;;
55268;SDS011;41131;42.990;21.954;2023-12-07T04:58:02;18.02;;;12.82;;
55268;SDS011;41131;42.990;21.954;2023-12-07T05:00:28;15.20;;;12.50;;
55268;SDS011;41131;42.990;21.954;2023-12-07T05:02:54;15.98;;;12.02;;
55268;SDS011;41131;42.990;21.954;2023-12-07T05:05:20;17.17;;;12.27;;
55268;SDS011;41131;42.990;21.954;2023-12-07T05:07:46;19.73;;;14.45;;
55268;SDS011;41131;42.990;21.954;2023-12-07T05:10:12;23.00;;;15.63;;
55268;SDS011;41131;42.990;21.954;2023-12-07T05:12:39;16.73;;;13.07;;
55268;SDS011;41131;42.990;21.954;2023-12-07T05:15:05;19.33;;;14.57;;
55268;SDS011;41131;42.990;21.954;2023-12-07T05:17:32;38.15;;;24.35;;
55268;SDS011;41131;42.990;21.954;2023-12-07T05:19:58;23.35;;;16.75;;
55268;SDS011;41131;42.990;21.954;2023-12-07T05:22:24;25.70;;;18.73;;
55268;SDS011;41131;42.990;21.954;2023-12-07T05:24:50;27.50;;;18.92;;
55268;SDS011;41131;42.990;21.954;2023-12-07T05:27:16;25.67;;;17.10;;
55268;SDS011;41131;42.990;21.954;2023-12-07T05:29:42;25.83;;;18.15;;
55268;SDS011;41131;42.990;21.954;2023-12-07T05:32:08;24.30;;;17.88;;
55268;SDS011;41131;42.990;21.954;2023-12-07T05:34:34;28.15;;;19.33;;
55268;SDS011;41131;42.990;21.954;2023-12-07T05:37:01;35.58;;;23.90;;
55268;SDS011;41131;42.990;21.954;2023-12-07T05:39:27;27.65;;;20.73;;
55268;SDS011;41131;42.990;21.954;2023-12-07T05:41:53;22.13;;;17.33;;
55268;SDS011;41131;42.990;21.954;2023-12-07T05:44:19;27.88;;;19.73;;
55268;SDS011;41131;42.990;21.954;2023-12-07T05:46:47;31.40;;;21.25;;
55268;SDS011;41131;42.990;21.954;2023-12-07T05:49:13;29.45;;;20.63;;
55268;SDS011;41131;42.990;21.954;2023-12-07T05:51:39;20.80;;;16.10;;
55268;SDS011;41131;42.990;21.954;2023-12-07T05:54:06;19.50;;;15.30;;
55268;SDS011;41131;42.990;21.954;2023-12-07T05:56:32;18.65;;;13.82;;
55268;SDS011;41131;42.990;21.954;2023-12-07T05:58:58;25.63;;;17.17;;
55268;SDS011;41131;42.990;21.954;2023-12-07T06:01:24;31.25;;;21.40;;
55268;SDS011;41131;42.990;21.954;2023-12-07T06:03:50;87.38;;;26.27;;
55268;SDS011;41131;42.990;21.954;2023-12-07T06:06:16;26.33;;;20.35;;
55268;SDS011;41131;42.990;21.954;2023-12-07T06:08:42;32.17;;;23.58;;
55268;SDS011;41131;42.990;21.954;2023-12-07T06:11:09;30.40;;;22.80;;
55268;SDS011;41131;42.990;21.954;2023-12-07T06:13:35;36.75;;;25.05;;
55268;SDS011;41131;42.990;21.954;2023-12-07T06:16:01;25.10;;;19.35;;
55268;SDS011;41131;42.990;21.954;2023-12-07T06:18:28;29.67;;;22.27;;
55268;SDS011;41131;42.990;21.954;2023-12-07T06:20:54;27.20;;;21.25;;
55268;SDS011;41131;42.990;21.954;2023-12-07T06:23:20;24.05;;;17.85;;
55268;SDS011;41131;42.990;21.954;2023-12-07T06:25:46;38.00;;;25.95;;
55268;SDS011;41131;42.990;21.954;2023-12-07T06:28:13;22.92;;;18.05;;
55268;SDS011;41131;42.990;21.954;2023-12-07T06:30:39;28.00;;;19.05;;
55268;SDS011;41131;42.990;21.954;2023-12-07T06:33:05;27.30;;;19.15;;
55268;SDS011;41131;42.990;21.954;2023-12-07T06:35:31;24.35;;;18.38;;
55268;SDS011;41131;42.990;21.954;2023-12-07T06:37:57;30.63;;;20.90;;
55268;SDS011;41131;42.990;21.954;2023-12-07T06:40:23;32.08;;;21.73;;
55268;SDS011;41131;42.990;21.954;2023-12-07T06:42:49;25.50;;;19.00;;
55268;SDS011;41131;42.990;21.954;2023-12-07T06:45:15;23.73;;;18.77;;
55268;SDS011;41131;42.990;21.954;2023-12-07T06:47:41;29.80;;;22.73;;
55268;SDS011;41131;42.990;21.954;2023-12-07T06:50:08;43.10;;;26.00;;
55268;SDS011;41131;42.990;21.954;2023-12-07T06:52:38;39.85;;;26.00;;
55268;SDS011;41131;42.990;21.954;2023-12-07T06:55:04;39.13;;;26.65;;
55268;SDS011;41131;42.990;21.954;2023-12-07T06:57:31;36.13;;;25.17;;
55268;SDS011;41131;42.990;21.954;2023-12-07T06:59:57;37.25;;;27.20;;
55268;SDS011;41131;42.990;21.954;2023-12-07T07:02:23;40.35;;;27.63;;
55268;SDS011;41131;42.990;21.954;2023-12-07T07:04:49;40.92;;;28.83;;
55268;SDS011;41131;42.990;21.954;2023-12-07T07:07:16;40.63;;;26.95;;
55268;SDS011;41131;42.990;21.954;2023-12-07T07:09:42;32.22;;;22.98;;
55268;SDS011;41131;42.990;21.954;2023-12-07T07:12:08;41.42;;;28.65;;
55268;SDS011;41131;42.990;21.954;2023-12-07T07:14:34;31.00;;;22.00;;
55268;SDS011;41131;42.990;21.954;2023-12-07T07:17:01;34.53;;;25.83;;
55268;SDS011;41131;42.990;21.954;2023-12-07T07:19:27;36.00;;;26.42;;
55268;SDS011;41131;42.990;21.954;2023-12-07T07:21:54;31.55;;;23.55;;
55268;SDS011;41131;42.990;21.954;2023-12-07T07:24:20;34.63;;;25.50;;
55268;SDS011;41131;42.990;21.954;2023-12-07T07:26:46;44.67;;;31.40;;
55268;SDS011;41131;42.990;21.954;2023-12-07T07:29:12;56.50;;;38.20;;
55268;SDS011;41131;42.990;21.954;2023-12-07T07:31:38;58.58;;;40.47;;
55268;SDS011;41131;42.990;21.954;2023-12-07T07:34:04;52.55;;;35.40;;
55268;SDS011;41131;42.990;21.954;2023-12-07T07:36:31;55.25;;;35.42;;
55268;SDS011;41131;42.990;21.954;2023-12-07T07:38:57;43.97;;;28.95;;
55268;SDS011;41131;42.990;21.954;2023-12-07T07:41:23;45.15;;;30.88;;
55268;SDS011;41131;42.990;21.954;2023-12-07T07:43:49;57.75;;;39.33;;
55268;SDS011;41131;42.990;21.954;2023-12-07T07:46:15;70.15;;;48.20;;
55268;SDS011;41131;42.990;21.954;2023-12-07T07:48:42;37.80;;;28.50;;
55268;SDS011;41131;42.990;21.954;2023-12-07T07:51:08;45.75;;;34.72;;
55268;SDS011;41131;42.990;21.954;2023-12-07T07:53:34;53.58;;;40.20;;
55268;SDS011;41131;42.990;21.954;2023-12-07T07:56:00;57.90;;;44.15;;
55268;SDS011;41131;42.990;21.954;2023-12-07T07:58:26;94.13;;;65.88;;
55268;SDS011;41131;42.990;21.954;2023-12-07T08:00:52;50.08;;;39.72;;
55268;SDS011;41131;42.990;21.954;2023-12-07T08:03:18;77.97;;;52.28;;
55268;SDS011;41131;42.990;21.954;2023-12-07T08:05:44;99.07;;;61.38;;
55268;SDS011;41131;42.990;21.954;2023-12-07T08:08:10;65.28;;;45.85;;
55268;SDS011;41131;42.990;21.954;2023-12-07T08:10:36;204.75;;;135.98;;
55268;SDS011;41131;42.990;21.954;2023-12-07T08:13:04;153.27;;;102.20;;
55268;SDS011;41131;42.990;21.954;2023-12-07T08:15:32;126.72;;;94.65;;
55268;SDS011;41131;42.990;21.954;2023-12-07T08:17:58;49.47;;;38.00;;
55268;SDS011;41131;42.990;21.954;2023-12-07T08:20:24;84.55;;;57.83;;
55268;SDS011;41131;42.990;21.954;2023-12-07T08:22:51;92.95;;;65.07;;
55268;SDS011;41131;42.990;21.954;2023-12-07T08:25:17;103.53;;;76.68;;
55268;SDS011;41131;42.990;21.954;2023-12-07T08:27:43;84.85;;;59.67;;
55268;SDS011;41131;42.990;21.954;2023-12-07T08:30:11;62.47;;;46.78;;
55268;SDS011;41131;42.990;21.954;2023-12-07T08:32:37;70.25;;;47.15;;
55268;SDS011;41131;42.990;21.954;2023-12-07T08:35:04;52.90;;;41.10;;
55268;SDS011;41131;42.990;21.954;2023-12-07T08:37:33;51.63;;;35.88;;
55268;SDS011;41131;42.990;21.954;2023-12-07T08:39:59;64.57;;;49.28;;
55268;SDS011;41131;42.990;21.954;2023-12-07T08:42:25;64.28;;;47.05;;
55268;SDS011;41131;42.990;21.954;2023-12-07T08:44:52;65.75;;;47.58;;
55268;SDS011;41131;42.990;21.954;2023-12-07T08:47:18;65.30;;;47.97;;
55268;SDS011;41131;42.990;21.954;2023-12-07T08:49:44;130.07;;;111.10;;
55268;SDS011;41131;42.990;21.954;2023-12-07T08:52:10;76.63;;;61.33;;
55268;SDS011;41131;42.990;21.954;2023-12-07T08:54:36;74.32;;;63.28;;
55268;SDS011;41131;42.990;21.954;2023-12-07T08:57:03;69.68;;;51.42;;
55268;SDS011;41131;42.990;21.954;2023-12-07T08:59:29;72.25;;;50.92;;
55268;SDS011;41131;42.990;21.954;2023-12-07T09:01:55;60.47;;;43.47;;
55268;SDS011;41131;42.990;21.954;2023-12-07T09:04:22;63.25;;;45.47;;
55268;SDS011;41131;42.990;21.954;2023-12-07T09:06:48;59.75;;;42.35;;
55268;SDS011;41131;42.990;21.954;2023-12-07T09:09:14;48.85;;;37.45;;
55268;SDS011;41131;42.990;21.954;2023-12-07T09:11:40;44.92;;;35.10;;
55268;SDS011;41131;42.990;21.954;2023-12-07T09:14:07;54.15;;;41.45;;
55268;SDS011;41131;42.990;21.954;2023-12-07T09:16:33;59.13;;;43.25;;
55268;SDS011;41131;42.990;21.954;2023-12-07T09:18:59;69.43;;;53.50;;
55268;SDS011;41131;42.990;21.954;2023-12-07T09:21:26;56.97;;;42.33;;
55268;SDS011;41131;42.990;21.954;2023-12-07T09:23:53;68.82;;;50.67;;
55268;SDS011;41131;42.990;21.954;2023-12-07T09:26:19;67.90;;;53.83;;
55268;SDS011;41131;42.990;21.954;2023-12-07T09:28:45;46.20;;;37.22;;
55268;SDS011;41131;42.990;21.954;2023-12-07T09:31:11;74.82;;;50.38;;
55268;SDS011;41131;42.990;21.954;2023-12-07T09:33:37;100.15;;;67.35;;
55268;SDS011;41131;42.990;21.954;2023-12-07T09:36:03;49.08;;;35.25;;
55268;SDS011;41131;42.990;21.954;2023-12-07T09:38:34;409.88;;;161.90;;
55268;SDS011;41131;42.990;21.954;2023-12-07T09:41:02;41.65;;;31.30;;
55268;SDS011;41131;42.990;21.954;2023-12-07T09:43:28;76.50;;;44.42;;
55268;SDS011;41131;42.990;21.954;2023-12-07T09:45:54;62.25;;;41.08;;
55268;SDS011;41131;42.990;21.954;2023-12-07T09:48:21;44.38;;;31.38;;
55268;SDS011;41131;42.990;21.954;2023-12-07T09:50:47;197.95;;;96.70;;
55268;SDS011;41131;42.990;21.954;2023-12-07T09:53:13;97.32;;;57.30;;
55268;SDS011;41131;42.990;21.954;2023-12-07T09:55:39;119.78;;;66.38;;
55268;SDS011;41131;42.990;21.954;2023-12-07T09:58:05;137.05;;;77.43;;
55268;SDS011;41131;42.990;21.954;2023-12-07T10:00:32;114.55;;;63.95;;
55268;SDS011;41131;42.990;21.954;2023-12-07T10:02:58;123.90;;;66.20;;
55268;SDS011;41131;42.990;21.954;2023-12-07T10:05:24;177.15;;;93.22;;
55268;SDS011;41131;42.990;21.954;2023-12-07T10:07:51;149.40;;;74.97;;
55268;SDS011;41131;42.990;21.954;2023-12-07T10:10:17;41.63;;;29.75;;
55268;SDS011;41131;42.990;21.954;2023-12-07T10:12:48;172.73;;;95.32;;
55268;SDS011;41131;42.990;21.954;2023-12-07T10:15:17;46.75;;;34.25;;
55268;SDS011;41131;42.990;21.954;2023-12-07T10:17:48;100.22;;;53.88;;
55268;SDS011;41131;42.990;21.954;2023-12-07T10:20:15;52.88;;;35.67;;
55268;SDS011;41131;42.990;21.954;2023-12-07T10:22:42;177.77;;;88.00;;
55268;SDS011;41131;42.990;21.954;2023-12-07T10:25:09;81.25;;;46.65;;
55268;SDS011;41131;42.990;21.954;2023-12-07T10:27:37;75.28;;;47.35;;
55268;SDS011;41131;42.990;21.954;2023-12-07T10:30:04;86.07;;;48.40;;
55268;SDS011;41131;42.990;21.954;2023-12-07T10:32:32;47.47;;;32.67;;
55268;SDS011;41131;42.990;21.954;2023-12-07T10:34:59;34.42;;;24.88;;
55268;SDS011;41131;42.990;21.954;2023-12-07T10:37:26;62.60;;;41.80;;
55268;SDS011;41131;42.990;21.954;2023-12-07T10:39:52;57.22;;;40.17;;
55268;SDS011;41131;42.990;21.954;2023-12-07T10:42:18;47.92;;;36.03;;
55268;SDS011;41131;42.990;21.954;2023-12-07T10:44:46;56.95;;;38.97;;
55268;SDS011;41131;42.990;21.954;2023-12-07T10:47:15;36.72;;;26.70;;
55268;SDS011;41131;42.990;21.954;2023-12-07T10:49:42;47.05;;;34.75;;
55268;SDS011;41131;42.990;21.954;2023-12-07T10:52:11;72.63;;;46.08;;
55268;SDS011;41131;42.990;21.954;2023-12-07T10:57:05;66.85;;;43.00;;
55268;SDS011;41131;42.990;21.954;2023-12-07T10:59:32;46.10;;;31.23;;
55268;SDS011;41131;42.990;21.954;2023-12-07T11:01:58;39.70;;;27.35;;
55268;SDS011;41131;42.990;21.954;2023-12-07T11:04:24;36.72;;;29.77;;
55268;SDS011;41131;42.990;21.954;2023-12-07T11:06:50;36.38;;;28.08;;
55268;SDS011;41131;42.990;21.954;2023-12-07T11:09:22;35.50;;;27.35;;
55268;SDS011;41131;42.990;21.954;2023-12-07T11:11:54;33.72;;;25.27;;
55268;SDS011;41131;42.990;21.954;2023-12-07T11:14:22;35.17;;;26.00;;
55268;SDS011;41131;42.990;21.954;2023-12-07T11:16:49;38.92;;;29.05;;
55268;SDS011;41131;42.990;21.954;2023-12-07T11:22:09;35.85;;;26.50;;
55268;SDS011;41131;42.990;21.954;2023-12-07T11:24:36;40.40;;;29.20;;
55268;SDS011;41131;42.990;21.954;2023-12-07T11:27:03;37.88;;;28.80;;
55268;SDS011;41131;42.990;21.954;2023-12-07T11:29:29;38.58;;;28.95;;
55268;SDS011;41131;42.990;21.954;2023-12-07T11:31:56;33.80;;;24.33;;
55268;SDS011;41131;42.990;21.954;2023-12-07T11:37:04;37.58;;;28.20;;
55268;SDS011;41131;42.990;21.954;2023-12-07T11:39:39;38.05;;;27.50;;
55268;SDS011;41131;42.990;21.954;2023-12-07T11:42:16;35.85;;;28.80;;
55268;SDS011;41131;42.990;21.954;2023-12-07T11:44:42;34.72;;;28.10;;
55268;SDS011;41131;42.990;21.954;2023-12-07T11:47:15;28.83;;;23.02;;
55268;SDS011;41131;42.990;21.954;2023-12-07T11:49:41;34.58;;;24.38;;
55268;SDS011;41131;42.990;21.954;2023-12-07T11:52:20;34.20;;;25.27;;
55268;SDS011;41131;42.990;21.954;2023-12-07T11:54:47;33.70;;;25.67;;
55268;SDS011;41131;42.990;21.954;2023-12-07T11:57:14;42.30;;;30.58;;
55268;SDS011;41131;42.990;21.954;2023-12-07T11:59:41;128.80;;;76.55;;
55268;SDS011;41131;42.990;21.954;2023-12-07T12:02:10;39.38;;;29.88;;
55268;SDS011;41131;42.990;21.954;2023-12-07T12:04:36;39.35;;;30.70;;
55268;SDS011;41131;42.990;21.954;2023-12-07T12:07:03;90.95;;;64.88;;
55268;SDS011;41131;42.990;21.954;2023-12-07T12:09:29;46.88;;;35.72;;
55268;SDS011;41131;42.990;21.954;2023-12-07T12:11:56;35.35;;;26.85;;
55268;SDS011;41131;42.990;21.954;2023-12-07T12:14:25;46.70;;;34.53;;
55268;SDS011;41131;42.990;21.954;2023-12-07T12:16:51;72.20;;;50.80;;
55268;SDS011;41131;42.990;21.954;2023-12-07T12:19:17;57.65;;;43.03;;
55268;SDS011;41131;42.990;21.954;2023-12-07T12:21:44;36.35;;;27.50;;
55268;SDS011;41131;42.990;21.954;2023-12-07T12:24:12;52.50;;;37.47;;
55268;SDS011;41131;42.990;21.954;2023-12-07T12:26:41;48.55;;;37.30;;
55268;SDS011;41131;42.990;21.954;2023-12-07T12:29:08;69.53;;;54.38;;
55268;SDS011;41131;42.990;21.954;2023-12-07T12:31:35;70.10;;;55.05;;
55268;SDS011;41131;42.990;21.954;2023-12-07T12:34:01;76.60;;;55.72;;
55268;SDS011;41131;42.990;21.954;2023-12-07T12:36:28;119.97;;;90.18;;
55268;SDS011;41131;42.990;21.954;2023-12-07T12:38:54;62.60;;;49.08;;
55268;SDS011;41131;42.990;21.954;2023-12-07T12:41:24;45.20;;;34.28;;
55268;SDS011;41131;42.990;21.954;2023-12-07T12:43:52;61.67;;;46.20;;
55268;SDS011;41131;42.990;21.954;2023-12-07T12:46:18;68.00;;;50.88;;
55268;SDS011;41131;42.990;21.954;2023-12-07T12:48:54;124.45;;;83.13;;
55268;SDS011;41131;42.990;21.954;2023-12-07T12:51:20;51.70;;;37.80;;
55268;SDS011;41131;42.990;21.954;2023-12-07T12:53:46;113.43;;;70.60;;
55268;SDS011;41131;42.990;21.954;2023-12-07T12:56:13;60.13;;;42.30;;
55268;SDS011;41131;42.990;21.954;2023-12-07T12:58:40;82.40;;;62.15;;
55268;SDS011;41131;42.990;21.954;2023-12-07T13:01:06;67.70;;;50.90;;
55268;SDS011;41131;42.990;21.954;2023-12-07T13:03:32;56.00;;;42.03;;
55268;SDS011;41131;42.990;21.954;2023-12-07T13:05:59;59.53;;;44.45;;
55268;SDS011;41131;42.990;21.954;2023-12-07T13:08:25;62.08;;;44.05;;
55268;SDS011;41131;42.990;21.954;2023-12-07T13:10:51;103.20;;;76.28;;
55268;SDS011;41131;42.990;21.954;2023-12-07T13:13:17;84.40;;;59.80;;
55268;SDS011;41131;42.990;21.954;2023-12-07T13:15:44;51.63;;;37.55;;
55268;SDS011;41131;42.990;21.954;2023-12-07T13:18:10;79.25;;;50.05;;
55268;SDS011;41131;42.990;21.954;2023-12-07T13:20:36;82.63;;;58.95;;
55268;SDS011;41131;42.990;21.954;2023-12-07T13:23:02;81.72;;;58.10;;
55268;SDS011;41131;42.990;21.954;2023-12-07T13:25:28;88.78;;;62.20;;
55268;SDS011;41131;42.990;21.954;2023-12-07T13:27:55;72.50;;;53.25;;
55268;SDS011;41131;42.990;21.954;2023-12-07T13:30:21;91.45;;;65.93;;
55268;SDS011;41131;42.990;21.954;2023-12-07T13:32:50;74.93;;;54.13;;
55268;SDS011;41131;42.990;21.954;2023-12-07T13:35:16;67.57;;;46.72;;
55268;SDS011;41131;42.990;21.954;2023-12-07T13:37:42;55.95;;;40.78;;
55268;SDS011;41131;42.990;21.954;2023-12-07T13:40:08;69.45;;;48.88;;
55268;SDS011;41131;42.990;21.954;2023-12-07T13:42:35;108.50;;;73.10;;
55268;SDS011;41131;42.990;21.954;2023-12-07T13:45:02;99.65;;;69.05;;
55268;SDS011;41131;42.990;21.954;2023-12-07T13:47:28;46.85;;;32.60;;
55268;SDS011;41131;42.990;21.954;2023-12-07T13:49:58;46.85;;;34.35;;
55268;SDS011;41131;42.990;21.954;2023-12-07T13:52:24;47.08;;;36.55;;
55268;SDS011;41131;42.990;21.954;2023-12-07T13:54:51;46.22;;;33.78;;
55268;SDS011;41131;42.990;21.954;2023-12-07T13:57:18;45.17;;;32.80;;
55268;SDS011;41131;42.990;21.954;2023-12-07T13:59:44;78.13;;;55.97;;
55268;SDS011;41131;42.990;21.954;2023-12-07T14:02:10;159.85;;;96.93;;
55268;SDS011;41131;42.990;21.954;2023-12-07T14:04:37;102.05;;;73.78;;
55268;SDS011;41131;42.990;21.954;2023-12-07T14:07:09;82.45;;;59.35;;
55268;SDS011;41131;42.990;21.954;2023-12-07T14:09:36;50.80;;;37.13;;
55268;SDS011;41131;42.990;21.954;2023-12-07T14:12:03;111.55;;;68.72;;